Woodward, OK (73802)

3:43 AM CDT on June 24, 2018 (GMT -0500)
Windy Ridge | | Change Station
Active Advisory: Severe Thunderstorm Watch

Elev 2070 ft 36.40 °N, 99.39 °W | Updated 6 seconds ago

Mostly Cloudy
Mostly Cloudy
68.4 °F
Feels Like 68.4 °F
N
1.34
Wind Variable Wind from SE
Gusts 4.0 mph

Today
High -- | Low -- °F
--% Chance of Precip.
Yesterday
High -- | Low -- °F
Precip. -- in
Pressure 29.88 in
Visibility 10.0 miles
Clouds Mostly Cloudy 6500 ft
Dew Point 64 °F
Humidity 85%
Rainfall 0.58 in
Snow Depth Not available.
6:20 AM 8:59 PM
Waxing Gibbous, 87% visible
METAR KWWR 240835Z AUTO 08004KT 10SM VCTS BKN065 18/15 A2988 RMK AO2 LTG DSNT NE THRU SE
Pressure 29.88 in
Visibility 10.0 miles
Clouds Mostly Cloudy 6500 ft
Dew Point 64 °F
Humidity 85%
Rainfall 0.58 in
Snow Depth Not available.
6:20 AM 8:59 PM
Waxing Gibbous, 87% visible
METAR KWWR 240835Z AUTO 08004KT 10SM VCTS BKN065 18/15 A2988 RMK AO2 LTG DSNT NE THRU SE

Get Your Daily Forecast Email!

Thanks for signing up!

Be on the lookout for a verification email in your inbox.

You'll start receiving severe weather alerts in your inbox..

×

10-Day Weather Forecast

Almanac

Astronomy

Jun. 24, 2018 Rise Set
Actual Time
Civil Twilight
Nautical Twilight
Astronomical Twilight
Moon
Length of Visible Light
Length of Day
Tomorrow will be .
, % of the Moon is Illuminated

Today's Extremes

State Highs State Lows

Community

WunderPhotos

Category 6

Welcome to Category 6. This is the collective home for Weather Underground's featured writeups by Dr. Jeff Masters (right), Bob Henson (left), Chris Burt, and other regular contributors.

Nearby

Air Quality

  Air Quality AQ Index Pollutant
Not available.

Snow Depth

Station Depth Elevation

Earthquake Activity

City Distance Mag. Time & Date
Minimum magnitude displayed is 2.5.

Coastal Water Temperatures

Place Temperature

Stations

Nearby Weather Stations

Station Location Temp. Windchill Dew Point Humidity Wind Precip. Elev Updated Type
                   

Watches & Warnings

Severe Thunderstorm Watch
Issued: 3:33 AM CDT Jun. 24, 2018 – National Weather Service

Severe Thunderstorm Watch 209 remains in effect until 500 am CDT

OK
. Oklahoma counties included are

Alfalfa Blaine Custer
Dewey Ellis Garfield
Grant Harper Kay
Kingfisher Logan major
Noble Payne Roger Mills
Woods Woodward